createdAt,value
2023-04-18T00:00:13.083Z,4.01
2023-04-18T00:02:39.455Z,3.78
2023-04-18T00:05:05.791Z,4.11
2023-04-18T00:07:32.077Z,3.80
2023-04-18T00:09:58.356Z,3.92
2023-04-18T00:12:24.621Z,3.96
2023-04-18T00:14:50.915Z,4.04
2023-04-18T00:17:17.169Z,4.39
2023-04-18T00:19:43.471Z,4.00
2023-04-18T00:22:09.760Z,3.92
2023-04-18T00:24:36.048Z,3.98
2023-04-18T00:27:02.348Z,4.06
2023-04-18T00:29:28.609Z,4.40
2023-04-18T00:31:54.891Z,4.34
2023-04-18T00:34:21.173Z,4.00
2023-04-18T00:36:47.418Z,4.36
2023-04-18T00:39:13.669Z,4.11
2023-04-18T00:41:39.925Z,4.60
2023-04-18T00:44:06.244Z,4.18
2023-04-18T00:46:32.659Z,4.34
2023-04-18T00:48:58.953Z,4.13
2023-04-18T00:51:25.202Z,4.18
2023-04-18T00:53:51.472Z,4.29
2023-04-18T00:56:17.793Z,4.37
2023-04-18T00:58:44.059Z,4.20
2023-04-18T01:01:10.334Z,4.33
2023-04-18T01:03:36.749Z,4.43
2023-04-18T01:06:03.110Z,4.35
2023-04-18T01:08:29.377Z,4.70
2023-04-18T01:10:55.632Z,4.50
2023-04-18T01:13:21.873Z,4.75
2023-04-18T01:15:48.127Z,4.72
2023-04-18T01:18:14.439Z,4.76
2023-04-18T01:20:40.710Z,5.01
2023-04-18T01:23:06.970Z,5.43
2023-04-18T01:25:33.226Z,5.28
2023-04-18T01:27:59.509Z,5.50
2023-04-18T01:30:25.782Z,5.54
2023-04-18T01:32:52.076Z,5.55
2023-04-18T01:35:18.379Z,5.43
2023-04-18T01:37:44.650Z,5.70
2023-04-18T01:40:10.945Z,6.07
2023-04-18T01:42:37.186Z,5.80
2023-04-18T01:45:03.471Z,5.75
2023-04-18T01:47:29.782Z,5.71
2023-04-18T01:49:56.044Z,5.94
2023-04-18T01:52:22.302Z,6.32
2023-04-18T01:54:48.564Z,6.11
2023-04-18T01:57:14.803Z,6.16
2023-04-18T01:59:41.049Z,6.15
2023-04-18T02:02:07.367Z,6.18
2023-04-18T02:04:33.681Z,6.10
2023-04-18T02:06:59.962Z,6.54
2023-04-18T02:09:26.245Z,6.85
2023-04-18T02:11:52.512Z,6.67
2023-04-18T02:14:18.760Z,6.98
2023-04-18T02:16:45.048Z,6.62
2023-04-18T02:19:11.365Z,6.54
2023-04-18T02:21:37.629Z,6.50
2023-04-18T02:24:03.914Z,6.72
2023-04-18T02:26:30.158Z,6.43
2023-04-18T02:28:56.410Z,6.36
2023-04-18T02:31:22.735Z,6.66
2023-04-18T02:33:49.020Z,7.08
2023-04-18T02:36:15.294Z,7.18
2023-04-18T02:38:41.608Z,6.85
2023-04-18T02:41:07.883Z,7.52
2023-04-18T02:43:34.173Z,7.07
2023-04-18T02:46:00.520Z,7.41
2023-04-18T02:48:26.838Z,7.05
2023-04-18T02:50:53.201Z,7.54
2023-04-18T02:53:19.446Z,7.63
2023-04-18T02:55:45.726Z,7.49
2023-04-18T02:58:11.984Z,7.44
2023-04-18T03:00:38.246Z,7.44
2023-04-18T03:03:04.624Z,7.48
2023-04-18T03:05:30.937Z,7.85
2023-04-18T03:07:57.196Z,7.90
2023-04-18T03:10:23.466Z,7.81
2023-04-18T03:12:49.722Z,7.80
2023-04-18T03:15:15.959Z,8.03
2023-04-18T03:17:42.239Z,7.97
2023-04-18T03:20:08.481Z,7.81
2023-04-18T03:22:34.789Z,7.66
2023-04-18T03:25:01.046Z,7.81
2023-04-18T03:27:27.301Z,8.17
2023-04-18T03:29:53.556Z,8.20
2023-04-18T03:32:19.845Z,8.53
2023-04-18T03:34:46.098Z,8.53
2023-04-18T03:37:12.344Z,8.00
2023-04-18T03:39:38.624Z,8.55
2023-04-18T03:42:04.879Z,8.37
2023-04-18T03:44:31.129Z,8.49
2023-04-18T03:46:57.421Z,8.05
2023-04-18T03:49:23.680Z,8.40
2023-04-18T03:51:49.933Z,8.16
2023-04-18T03:54:16.432Z,8.27
2023-04-18T03:56:42.869Z,8.12
2023-04-18T03:59:09.137Z,7.91
2023-04-18T04:01:35.414Z,8.53
2023-04-18T04:04:01.897Z,8.26
2023-04-18T04:06:28.261Z,8.21
2023-04-18T04:08:54.536Z,8.26
2023-04-18T04:11:20.790Z,8.50
2023-04-18T04:13:47.045Z,8.74
2023-04-18T04:16:13.303Z,8.55
2023-04-18T04:18:39.638Z,8.44
2023-04-18T04:21:05.933Z,8.59
2023-04-18T04:23:32.189Z,8.67
2023-04-18T04:25:58.449Z,8.28
2023-04-18T04:28:24.696Z,8.29
2023-04-18T04:30:50.957Z,8.61
2023-04-18T04:33:17.702Z,8.52
2023-04-18T04:35:43.979Z,8.25
2023-04-18T04:38:10.232Z,8.62
2023-04-18T04:40:36.492Z,8.64
2023-04-18T04:43:02.763Z,8.80
2023-04-18T04:45:29.035Z,9.60
2023-04-18T04:47:55.355Z,9.22
2023-04-18T04:50:21.631Z,8.86
2023-04-18T04:52:47.904Z,8.89
2023-04-18T04:55:14.198Z,8.73
2023-04-18T04:57:40.484Z,9.08
2023-04-18T05:00:06.737Z,9.29
2023-04-18T05:02:33.111Z,9.37
2023-04-18T05:04:59.419Z,9.15
2023-04-18T05:07:25.674Z,9.40
2023-04-18T05:09:51.921Z,9.66
2023-04-18T05:12:18.182Z,9.41
2023-04-18T05:14:44.435Z,9.21
2023-04-18T05:17:10.726Z,9.23
2023-04-18T05:19:37.008Z,9.41
2023-04-18T05:22:03.290Z,9.35
2023-04-18T05:24:29.555Z,9.02
2023-04-18T05:26:55.798Z,9.03
2023-04-18T05:29:22.045Z,9.82
2023-04-18T05:31:48.301Z,9.64
2023-04-18T05:34:14.673Z,9.71
2023-04-18T05:36:41.075Z,9.57
2023-04-18T05:39:07.333Z,9.96
2023-04-18T05:41:33.578Z,10.06
2023-04-18T05:44:05.476Z,9.96
2023-04-18T05:46:32.268Z,9.60
2023-04-18T05:48:58.559Z,9.93
2023-04-18T05:51:24.827Z,9.66
2023-04-18T05:53:51.099Z,9.54
2023-04-18T05:56:17.369Z,9.95
2023-04-18T05:58:43.743Z,9.54
2023-04-18T06:01:10.064Z,9.21
2023-04-18T06:03:36.535Z,9.17
2023-04-18T06:06:03.104Z,9.45
2023-04-18T06:08:29.441Z,9.06
2023-04-18T06:10:55.740Z,9.66
2023-04-18T06:13:22.041Z,9.25
2023-04-18T06:15:48.448Z,9.57
2023-04-18T06:18:14.755Z,9.45
2023-04-18T06:20:41.010Z,9.17
2023-04-18T06:23:07.275Z,9.30
2023-04-18T06:25:33.561Z,9.78
2023-04-18T06:27:59.830Z,9.87
2023-04-18T06:30:26.102Z,9.29
2023-04-18T06:32:52.465Z,9.37
2023-04-18T06:35:18.863Z,9.86
2023-04-18T06:37:45.152Z,9.76
2023-04-18T06:40:11.427Z,9.67
2023-04-18T06:42:37.742Z,9.68
2023-04-18T06:45:04.038Z,9.39
2023-04-18T06:47:30.426Z,9.30
2023-04-18T06:49:56.773Z,9.27
2023-04-18T06:52:23.045Z,9.23
2023-04-18T06:54:49.350Z,8.96
2023-04-18T06:57:15.642Z,8.76
2023-04-18T06:59:41.911Z,9.18
2023-04-18T07:02:08.235Z,9.46
2023-04-18T07:04:34.623Z,9.30
2023-04-18T07:07:00.932Z,8.90
2023-04-18T07:09:27.202Z,9.15
2023-04-18T07:11:53.466Z,9.31
2023-04-18T07:14:19.710Z,9.42
2023-04-18T07:16:45.994Z,9.15
2023-04-18T07:19:12.282Z,9.01
2023-04-18T07:21:38.548Z,9.19
2023-04-18T07:24:04.832Z,9.61
2023-04-18T07:26:31.098Z,9.20
2023-04-18T07:28:57.351Z,9.30
2023-04-18T07:31:23.655Z,9.55
2023-04-18T07:33:49.941Z,9.68
2023-04-18T07:36:16.186Z,9.28
2023-04-18T07:38:42.435Z,9.37
2023-04-18T07:41:08.710Z,9.06
2023-04-18T07:43:34.987Z,9.32
2023-04-18T07:46:01.362Z,9.46
2023-04-18T07:48:27.664Z,9.92
2023-04-18T07:50:53.929Z,9.40
2023-04-18T07:53:20.197Z,9.59
2023-04-18T07:55:46.450Z,9.08
2023-04-18T07:58:12.708Z,9.33
2023-04-18T08:00:39.025Z,9.59
2023-04-18T08:03:05.492Z,9.24
2023-04-18T08:05:31.853Z,8.87
2023-04-18T08:07:58.132Z,8.84
2023-04-18T08:10:24.475Z,9.25
2023-04-18T08:12:50.753Z,9.10
2023-04-18T08:15:17.009Z,9.35
2023-04-18T08:17:43.329Z,9.13
2023-04-18T08:20:09.607Z,9.21
2023-04-18T08:22:44.077Z,8.92
2023-04-18T08:25:16.667Z,8.71
2023-04-18T08:27:42.931Z,8.74
2023-04-18T08:30:09.258Z,8.85
2023-04-18T08:32:35.578Z,8.57
2023-04-18T08:35:01.922Z,8.91
2023-04-18T08:37:28.185Z,8.33
2023-04-18T08:39:54.492Z,8.60
2023-04-18T08:42:20.772Z,8.53
2023-04-18T08:44:47.063Z,8.48
2023-04-18T08:47:13.316Z,8.48
2023-04-18T08:49:39.575Z,8.47
2023-04-18T08:52:05.925Z,9.21
2023-04-18T08:54:32.208Z,8.70
2023-04-18T08:56:58.470Z,8.96
2023-04-18T08:59:24.745Z,9.05
2023-04-18T09:01:51.113Z,9.07
2023-04-18T09:04:17.439Z,9.10
2023-04-18T09:06:43.757Z,8.70
2023-04-18T09:09:10.051Z,8.45
2023-04-18T09:11:36.290Z,8.05
2023-04-18T09:14:02.731Z,8.07
2023-04-18T09:16:29.069Z,8.53
2023-04-18T09:18:55.363Z,8.86
2023-04-18T09:21:21.628Z,8.30
2023-04-18T09:23:47.946Z,8.61
2023-04-18T09:26:14.273Z,8.64
2023-04-18T09:28:40.534Z,8.52
2023-04-18T09:31:06.872Z,8.11
2023-04-18T09:33:33.215Z,8.50
2023-04-18T09:35:59.537Z,8.54
2023-04-18T09:38:25.789Z,8.57
2023-04-18T09:40:52.062Z,8.45
2023-04-18T09:43:18.311Z,8.26
2023-04-18T09:45:44.590Z,8.92
2023-04-18T09:48:10.909Z,8.47
2023-04-18T09:50:37.386Z,9.08
2023-04-18T09:53:03.665Z,9.91
2023-04-18T09:55:29.937Z,9.32
2023-04-18T09:57:56.235Z,9.23
2023-04-18T10:00:22.478Z,9.50
2023-04-18T10:02:48.860Z,8.80
2023-04-18T10:05:15.251Z,9.21
2023-04-18T10:07:41.549Z,9.11
2023-04-18T10:10:07.805Z,8.59
2023-04-18T10:12:34.097Z,8.18
2023-04-18T10:15:00.377Z,8.47
2023-04-18T10:17:28.099Z,8.51
2023-04-18T10:19:55.671Z,8.72
2023-04-18T10:22:21.953Z,9.01
2023-04-18T10:24:48.223Z,8.99
2023-04-18T10:27:14.517Z,8.55
2023-04-18T10:29:40.781Z,8.56
2023-04-18T10:32:07.046Z,8.73
2023-04-18T10:34:33.306Z,8.48
2023-04-18T10:36:59.549Z,8.13
2023-04-18T10:39:25.813Z,8.41
2023-04-18T10:41:52.072Z,7.94
2023-04-18T10:44:18.480Z,7.77
2023-04-18T10:46:44.845Z,8.17
2023-04-18T10:49:11.273Z,7.76
2023-04-18T10:51:37.621Z,7.63
2023-04-18T10:54:03.890Z,8.08
2023-04-18T10:56:30.177Z,7.55
2023-04-18T10:58:56.456Z,7.34
2023-04-18T11:01:22.742Z,7.25
2023-04-18T11:03:49.150Z,7.66
2023-04-18T11:06:15.488Z,7.34
2023-04-18T11:08:42.135Z,7.61
2023-04-18T11:11:08.420Z,7.37
2023-04-18T11:13:34.713Z,7.32
2023-04-18T11:16:01.006Z,7.20
2023-04-18T11:18:27.325Z,7.41
2023-04-18T11:20:53.587Z,7.10
2023-04-18T11:23:19.830Z,7.78
2023-04-18T11:25:46.147Z,7.80
2023-04-18T11:28:12.423Z,7.45
2023-04-18T11:30:38.723Z,8.07
2023-04-18T11:33:05.053Z,9.07
2023-04-18T11:35:31.332Z,9.09
2023-04-18T11:37:57.593Z,9.32
2023-04-18T11:40:23.876Z,9.20
2023-04-18T11:42:50.176Z,9.22
2023-04-18T11:45:16.476Z,8.89
2023-04-18T11:47:42.883Z,8.39
2023-04-18T11:50:09.270Z,8.95
2023-04-18T11:52:35.547Z,9.49
2023-04-18T11:55:01.806Z,9.48
2023-04-18T11:57:28.128Z,8.89
2023-04-18T11:59:54.380Z,8.39
2023-04-18T12:02:20.822Z,7.94
2023-04-18T12:04:47.361Z,8.36
2023-04-18T12:07:13.789Z,9.41
2023-04-18T12:09:40.085Z,9.12
2023-04-18T12:12:06.375Z,9.19
2023-04-18T12:14:32.682Z,9.12
2023-04-18T12:16:58.961Z,9.60
2023-04-18T12:19:25.249Z,9.60
2023-04-18T12:21:51.540Z,9.48
2023-04-18T12:24:17.813Z,9.84
2023-04-18T12:26:44.104Z,9.21
2023-04-18T12:29:10.366Z,8.93
2023-04-18T12:31:36.699Z,8.99
2023-04-18T12:34:02.992Z,8.75
2023-04-18T12:36:29.253Z,8.35
2023-04-18T12:38:55.530Z,8.48
2023-04-18T12:41:21.815Z,8.78
2023-04-18T12:43:48.089Z,8.27
2023-04-18T12:46:14.365Z,8.57
2023-04-18T12:48:40.699Z,9.26
2023-04-18T12:51:06.963Z,8.73
2023-04-18T12:53:33.247Z,8.47
2023-04-18T12:55:59.505Z,8.32
2023-04-18T12:58:25.829Z,7.96
2023-04-18T13:00:52.148Z,8.63
2023-04-18T13:03:18.578Z,8.20
2023-04-18T13:05:44.903Z,8.37
2023-04-18T13:08:17.218Z,7.84
2023-04-18T13:10:44.373Z,7.34
2023-04-18T13:13:10.697Z,7.64
2023-04-18T13:15:38.802Z,11.78
2023-04-18T13:18:06.540Z,18.00
2023-04-18T13:20:33.113Z,16.92
2023-04-18T13:22:59.432Z,10.42
2023-04-18T13:25:25.767Z,8.73
2023-04-18T13:27:52.042Z,8.22
2023-04-18T13:30:18.297Z,8.17
2023-04-18T13:32:44.631Z,7.80
2023-04-18T13:35:10.942Z,7.39
2023-04-18T13:37:37.589Z,6.44
2023-04-18T13:40:03.972Z,6.14
2023-04-18T13:42:30.252Z,5.33
2023-04-18T13:44:56.506Z,5.01
2023-04-18T13:47:22.811Z,5.32
2023-04-18T13:49:49.083Z,5.07
2023-04-18T13:52:15.366Z,5.43
2023-04-18T13:54:41.664Z,5.23
2023-04-18T13:57:07.948Z,5.21
2023-04-18T13:59:34.221Z,4.81
2023-04-18T14:02:00.689Z,4.95
2023-04-18T14:04:27.398Z,5.07
2023-04-18T14:06:53.906Z,4.67
2023-04-18T14:09:20.185Z,4.32
2023-04-18T14:11:46.543Z,4.65
2023-04-18T14:14:12.821Z,4.78
2023-04-18T14:16:39.476Z,4.47
2023-04-18T14:19:05.838Z,4.79
2023-04-18T14:21:32.184Z,4.68
2023-04-18T14:23:58.484Z,4.61
2023-04-18T14:26:24.797Z,4.93
2023-04-18T14:28:51.211Z,4.26
2023-04-18T14:31:17.551Z,3.89
2023-04-18T14:33:43.818Z,3.84
2023-04-18T14:36:10.075Z,3.86
2023-04-18T14:38:36.335Z,3.82
2023-04-18T14:41:02.600Z,3.59
2023-04-18T14:43:28.868Z,3.54
2023-04-18T14:45:55.137Z,3.50
2023-04-18T14:48:21.518Z,3.13
2023-04-18T14:50:47.821Z,3.27
2023-04-18T14:53:14.125Z,3.37
2023-04-18T14:55:40.408Z,3.10
2023-04-18T14:58:07.670Z,2.90
2023-04-18T15:00:33.936Z,3.00
2023-04-18T15:03:00.325Z,3.28
2023-04-18T15:05:26.678Z,3.03
2023-04-18T15:07:52.948Z,2.78
2023-04-18T15:10:19.243Z,3.45
2023-04-18T15:12:45.557Z,3.62
2023-04-18T15:15:11.809Z,3.68
2023-04-18T15:17:38.115Z,3.41
2023-04-18T15:20:04.440Z,3.38
2023-04-18T15:22:30.736Z,3.37
2023-04-18T15:24:57.019Z,3.21
2023-04-18T15:27:23.332Z,2.90
2023-04-18T15:29:49.639Z,2.85
2023-04-18T15:32:15.988Z,2.63
2023-04-18T15:34:42.296Z,2.60
2023-04-18T15:37:08.556Z,2.77
2023-04-18T15:39:34.818Z,2.50
2023-04-18T15:42:01.177Z,3.07
2023-04-18T15:44:27.449Z,2.71
2023-04-18T15:46:53.734Z,3.12
2023-04-18T15:49:20.031Z,4.19
2023-04-18T15:51:46.301Z,3.10
2023-04-18T15:54:12.943Z,2.70
2023-04-18T15:56:39.408Z,2.67
2023-04-18T15:59:05.672Z,3.01
2023-04-18T16:01:31.998Z,3.08
2023-04-18T16:03:58.398Z,3.06
2023-04-18T16:06:24.732Z,2.82
2023-04-18T16:08:51.009Z,2.49
2023-04-18T16:11:17.255Z,2.96
2023-04-18T16:13:43.551Z,3.14
2023-04-18T16:16:09.847Z,3.29
2023-04-18T16:18:36.162Z,3.37
2023-04-18T16:21:02.477Z,3.35
2023-04-18T16:23:28.754Z,3.14
2023-04-18T16:25:55.011Z,3.13
2023-04-18T16:28:21.337Z,2.79
2023-04-18T16:30:47.617Z,2.81
2023-04-18T16:33:14.037Z,2.97
2023-04-18T16:35:40.431Z,3.42
2023-04-18T16:38:06.726Z,3.62
2023-04-18T16:40:33.019Z,3.71
2023-04-18T16:42:59.296Z,3.46
2023-04-18T16:45:25.570Z,3.69
2023-04-18T16:47:51.933Z,3.45
2023-04-18T16:50:18.254Z,3.48
2023-04-18T16:52:44.525Z,3.45
2023-04-18T16:55:10.804Z,3.19
2023-04-18T16:57:37.068Z,2.95
2023-04-18T17:00:03.355Z,2.52
2023-04-18T17:02:29.978Z,2.53
2023-04-18T17:04:56.526Z,2.34
2023-04-18T17:07:22.969Z,2.56
2023-04-18T17:09:49.273Z,2.15
2023-04-18T17:12:15.618Z,2.29
2023-04-18T17:14:41.924Z,2.13
2023-04-18T17:17:08.223Z,2.24
2023-04-18T17:19:34.573Z,2.71
2023-04-18T17:22:00.888Z,2.78
2023-04-18T17:24:27.187Z,2.63
2023-04-18T17:26:53.594Z,3.05
2023-04-18T17:29:19.895Z,3.38
2023-04-18T17:31:46.209Z,3.82
2023-04-18T17:34:12.471Z,4.50
2023-04-18T17:36:38.742Z,6.28
2023-04-18T17:39:05.041Z,4.78
2023-04-18T17:41:31.431Z,4.88
2023-04-18T17:43:57.682Z,4.58
2023-04-18T17:46:24.011Z,4.68
2023-04-18T17:48:50.336Z,5.29
2023-04-18T17:51:16.663Z,5.59
2023-04-18T17:53:42.960Z,4.70
2023-04-18T17:56:09.276Z,4.87
2023-04-18T17:58:35.549Z,5.15
2023-04-18T18:01:01.856Z,5.27
2023-04-18T18:03:28.290Z,5.02
2023-04-18T18:05:54.918Z,5.39
2023-04-18T18:08:21.306Z,5.07
2023-04-18T18:10:47.613Z,5.55
2023-04-18T18:13:13.953Z,6.12
2023-04-18T18:15:40.248Z,6.45
2023-04-18T18:18:06.589Z,6.31
2023-04-18T18:20:32.968Z,6.55
2023-04-18T18:22:59.264Z,6.19
2023-04-18T18:25:25.592Z,6.69
2023-04-18T18:27:51.856Z,6.89
2023-04-18T18:30:18.225Z,7.27
2023-04-18T18:32:44.506Z,7.23
2023-04-18T18:35:10.812Z,7.24
2023-04-18T18:37:37.126Z,7.31
2023-04-18T18:40:03.439Z,6.91
2023-04-18T18:42:29.699Z,7.02
2023-04-18T18:44:55.959Z,7.53
2023-04-18T18:47:22.405Z,7.39
2023-04-18T18:49:48.760Z,7.49
2023-04-18T18:52:15.025Z,7.56
2023-04-18T18:54:41.287Z,8.00
2023-04-18T18:57:07.577Z,8.17
2023-04-18T18:59:33.835Z,8.16
2023-04-18T19:02:00.204Z,9.38
2023-04-18T19:04:26.659Z,8.13
2023-04-18T19:06:52.972Z,8.45
2023-04-18T19:09:19.269Z,9.26
2023-04-18T19:11:45.563Z,9.01
2023-04-18T19:14:11.820Z,8.84
2023-04-18T19:16:38.121Z,9.13
2023-04-18T19:19:04.472Z,9.06
2023-04-18T19:21:30.747Z,10.02
2023-04-18T19:23:57.032Z,10.48
2023-04-18T19:26:23.301Z,10.29
2023-04-18T19:28:49.601Z,9.93
2023-04-18T19:31:15.903Z,9.45
2023-04-18T19:33:42.200Z,9.26
2023-04-18T19:36:08.518Z,9.68
2023-04-18T19:38:34.789Z,9.22
2023-04-18T19:41:01.135Z,9.27
2023-04-18T19:43:27.398Z,8.96
2023-04-18T19:45:55.292Z,9.05
2023-04-18T19:48:21.756Z,8.81
2023-04-18T19:50:48.059Z,8.29
2023-04-18T19:53:14.507Z,9.06
2023-04-18T19:55:40.895Z,9.29
2023-04-18T19:58:07.159Z,9.36
2023-04-18T20:00:33.446Z,8.78
2023-04-18T20:02:59.889Z,9.05
2023-04-18T20:05:26.385Z,9.42
2023-04-18T20:07:52.692Z,9.12
2023-04-18T20:10:18.970Z,8.98
2023-04-18T20:12:45.213Z,9.21
2023-04-18T20:15:11.470Z,8.96
2023-04-18T20:17:37.751Z,9.25
2023-04-18T20:20:04.107Z,9.06
2023-04-18T20:22:30.383Z,8.87
2023-04-18T20:24:56.641Z,8.86
2023-04-18T20:27:22.914Z,9.32
2023-04-18T20:29:49.203Z,9.20
2023-04-18T20:32:15.548Z,9.33
2023-04-18T20:34:41.885Z,9.43
2023-04-18T20:37:08.155Z,9.23
2023-04-18T20:39:34.524Z,8.75
2023-04-18T20:42:00.821Z,8.72
2023-04-18T20:44:27.095Z,8.57
2023-04-18T20:46:53.397Z,8.77
2023-04-18T20:49:19.673Z,9.08
2023-04-18T20:51:46.025Z,8.86
2023-04-18T20:54:12.714Z,9.35
2023-04-18T20:56:39.145Z,9.57
2023-04-18T20:59:05.422Z,9.50
2023-04-18T21:01:31.692Z,9.65
2023-04-18T21:03:58.072Z,9.82
2023-04-18T21:06:24.513Z,10.07
2023-04-18T21:08:50.798Z,9.40
2023-04-18T21:11:18.081Z,9.34
2023-04-18T21:13:44.348Z,9.70
2023-04-18T21:16:10.733Z,9.58
2023-04-18T21:18:37.144Z,9.55
2023-04-18T21:21:03.446Z,9.86
2023-04-18T21:23:29.723Z,9.44
2023-04-18T21:25:55.989Z,9.16
2023-04-18T21:28:22.258Z,9.52
2023-04-18T21:30:48.529Z,9.95
2023-04-18T21:33:14.795Z,9.73
2023-04-18T21:35:41.068Z,9.41
2023-04-18T21:38:07.332Z,9.46
2023-04-18T21:40:33.578Z,9.78
2023-04-18T21:42:59.830Z,9.53
2023-04-18T21:45:26.138Z,9.48
2023-04-18T21:47:52.487Z,9.58
2023-04-18T21:50:18.793Z,9.94
2023-04-18T21:52:45.069Z,10.02
2023-04-18T21:55:11.342Z,9.96
2023-04-18T21:57:37.588Z,9.94
2023-04-18T22:00:03.864Z,10.19
2023-04-18T22:02:30.248Z,10.09
2023-04-18T22:04:56.645Z,9.93
2023-04-18T22:07:22.907Z,10.00
2023-04-18T22:09:49.185Z,10.05
2023-04-18T22:12:15.465Z,10.21
2023-04-18T22:14:41.737Z,9.99
2023-04-18T22:17:07.986Z,10.07
2023-04-18T22:19:34.233Z,10.43
2023-04-18T22:22:00.487Z,10.51
2023-04-18T22:24:26.737Z,10.61
2023-04-18T22:26:53.010Z,10.51
2023-04-18T22:29:19.300Z,10.87
2023-04-18T22:31:45.542Z,10.95
2023-04-18T22:34:11.812Z,10.57
2023-04-18T22:36:38.107Z,10.42
2023-04-18T22:39:04.407Z,10.48
2023-04-18T22:41:30.673Z,10.74
2023-04-18T22:43:56.966Z,10.30
2023-04-18T22:46:23.256Z,10.70
2023-04-18T22:48:49.553Z,10.73
2023-04-18T22:51:15.854Z,10.27
2023-04-18T22:53:42.094Z,10.85
2023-04-18T22:56:08.357Z,10.85
2023-04-18T22:58:34.616Z,10.68
2023-04-18T23:01:00.900Z,10.83
2023-04-18T23:03:27.349Z,10.50
2023-04-18T23:05:53.744Z,11.01
2023-04-18T23:08:20.006Z,11.14
2023-04-18T23:10:46.265Z,11.09
2023-04-18T23:13:12.521Z,10.92
2023-04-18T23:15:38.820Z,11.05
2023-04-18T23:18:05.124Z,11.58
2023-04-18T23:20:31.419Z,10.97
2023-04-18T23:22:57.686Z,11.80
2023-04-18T23:25:23.962Z,10.44
2023-04-18T23:27:50.226Z,10.88
2023-04-18T23:30:16.537Z,11.05
2023-04-18T23:32:42.854Z,11.30
2023-04-18T23:35:09.167Z,10.48
2023-04-18T23:37:35.521Z,10.68
2023-04-18T23:40:01.876Z,11.78
2023-04-18T23:42:28.160Z,11.19
2023-04-18T23:44:54.441Z,11.25
2023-04-18T23:47:20.858Z,11.42
2023-04-18T23:49:47.194Z,10.68
2023-04-18T23:52:13.442Z,11.06
2023-04-18T23:54:39.810Z,11.73
2023-04-18T23:57:06.095Z,11.21
2023-04-18T23:59:32.343Z,11.07
